createdAt,value
2018-05-01T00:00:48.753Z,85
2018-05-01T00:01:51.141Z,85
2018-05-01T00:02:53.519Z,85
2018-05-01T00:03:55.906Z,86
2018-05-01T00:04:58.294Z,85
2018-05-01T00:06:00.675Z,86
2018-05-01T00:07:03.061Z,86
2018-05-01T00:08:05.729Z,86
2018-05-01T00:09:08.100Z,87
2018-05-01T00:10:10.875Z,87
2018-05-01T00:11:13.256Z,87
2018-05-01T00:12:15.642Z,88
2018-05-01T00:13:18.029Z,88
2018-05-01T00:14:20.417Z,88
2018-05-01T00:15:23.068Z,88
2018-05-01T00:16:25.455Z,87
2018-05-01T00:17:27.850Z,88
2018-05-01T00:18:30.232Z,88
2018-05-01T00:19:32.600Z,88
2018-05-01T00:20:34.972Z,89
2018-05-01T00:21:37.352Z,88
2018-05-01T00:22:39.741Z,89
2018-05-01T00:23:42.139Z,89
2018-05-01T00:24:44.513Z,89
2018-05-01T00:25:46.899Z,89
2018-05-01T00:26:49.291Z,89
2018-05-01T00:27:51.672Z,89
2018-05-01T00:28:54.053Z,89
2018-05-01T00:29:56.432Z,89
2018-05-01T00:30:58.803Z,89
2018-05-01T00:32:01.777Z,89
2018-05-01T00:33:04.167Z,89
2018-05-01T00:34:06.818Z,89
2018-05-01T00:35:09.490Z,89
2018-05-01T00:36:11.877Z,89
2018-05-01T00:37:14.536Z,89
2018-05-01T00:38:17.591Z,89
2018-05-01T00:39:20.244Z,88
2018-05-01T00:40:23.008Z,88
2018-05-01T00:41:25.406Z,88
2018-05-01T00:42:27.791Z,88
2018-05-01T00:43:30.548Z,87
2018-05-01T00:44:33.212Z,87
2018-05-01T00:45:35.597Z,87
2018-05-01T00:46:37.981Z,87
2018-05-01T00:47:40.351Z,86
2018-05-01T00:48:42.739Z,86
2018-05-01T00:49:45.118Z,86
2018-05-01T00:50:47.487Z,85
2018-05-01T00:51:49.883Z,85
2018-05-01T00:52:52.269Z,83
2018-05-01T00:53:54.646Z,83
2018-05-01T00:54:57.035Z,82
2018-05-01T00:55:59.409Z,82
2018-05-01T00:57:01.791Z,82
2018-05-01T00:58:04.183Z,82
2018-05-01T00:59:06.566Z,82
2018-05-01T01:00:08.932Z,82
2018-05-01T01:01:11.318Z,81
2018-05-01T01:02:14.002Z,82
2018-05-01T01:03:16.382Z,81
2018-05-01T01:04:19.050Z,81
2018-05-01T01:05:21.417Z,80
2018-05-01T01:06:24.180Z,81
2018-05-01T01:07:26.571Z,81
2018-05-01T01:08:28.952Z,81
2018-05-01T01:09:31.336Z,81
2018-05-01T01:10:34.002Z,81
2018-05-01T01:11:36.382Z,82
2018-05-01T01:12:38.771Z,82
2018-05-01T01:13:41.153Z,81
2018-05-01T01:14:43.519Z,82
2018-05-01T01:15:45.896Z,82
2018-05-01T01:16:48.567Z,82
2018-05-01T01:17:50.940Z,82
2018-05-01T01:18:53.320Z,83
2018-05-01T01:19:55.703Z,82
2018-05-01T01:20:58.091Z,83
2018-05-01T01:22:01.137Z,82
2018-05-01T01:23:03.530Z,82
2018-05-01T01:24:06.185Z,83
2018-05-01T01:25:08.566Z,83
2018-05-01T01:26:10.945Z,83
2018-05-01T01:27:13.611Z,84
2018-05-01T01:28:16.273Z,84
2018-05-01T01:29:18.659Z,84
2018-05-01T01:30:21.036Z,84
2018-05-01T01:31:23.422Z,84
2018-05-01T01:32:26.083Z,84
2018-05-01T01:33:28.465Z,84
2018-05-01T01:34:30.840Z,85
2018-05-01T01:35:33.223Z,85
2018-05-01T01:36:35.605Z,85
2018-05-01T01:37:37.996Z,85
2018-05-01T01:38:40.367Z,85
2018-05-01T01:39:42.772Z,86
2018-05-01T01:40:45.152Z,85
2018-05-01T01:41:47.536Z,86
2018-05-01T01:42:49.918Z,86
2018-05-01T01:43:52.295Z,86
2018-05-01T01:44:55.055Z,86
2018-05-01T01:45:57.441Z,87
2018-05-01T01:46:59.816Z,87
2018-05-01T01:48:02.216Z,87
2018-05-01T01:49:04.597Z,87
2018-05-01T01:50:06.972Z,87
2018-05-01T01:51:09.353Z,87
2018-05-01T01:52:12.024Z,87
2018-05-01T01:53:14.407Z,87
2018-05-01T01:54:17.076Z,87
2018-05-01T01:55:19.451Z,87
2018-05-01T01:56:21.832Z,86
2018-05-01T01:57:24.219Z,86
2018-05-01T01:58:26.596Z,85
2018-05-01T01:59:29.262Z,85
2018-05-01T02:00:31.643Z,85
2018-05-01T02:01:34.021Z,84
2018-05-01T02:02:36.692Z,84
2018-05-01T02:03:39.427Z,84
2018-05-01T02:04:41.795Z,83
2018-05-01T02:05:44.566Z,84
2018-05-01T02:06:46.957Z,83
2018-05-01T02:07:49.620Z,82
2018-05-01T02:08:52.279Z,82
2018-05-01T02:09:54.666Z,81
2018-05-01T02:10:57.047Z,81
2018-05-01T02:11:59.711Z,80
2018-05-01T02:13:02.098Z,81
2018-05-01T02:14:04.467Z,81
2018-05-01T02:15:07.139Z,80
2018-05-01T02:16:09.524Z,79
2018-05-01T02:17:11.910Z,79
2018-05-01T02:18:14.290Z,79
2018-05-01T02:19:16.680Z,79
2018-05-01T02:20:19.352Z,78
2018-05-01T02:21:21.718Z,78
2018-05-01T02:22:24.101Z,78
2018-05-01T02:23:26.470Z,78
2018-05-01T02:24:28.852Z,78
2018-05-01T02:25:31.233Z,78
2018-05-01T02:26:33.616Z,77
2018-05-01T02:27:35.999Z,77
2018-05-01T02:28:38.777Z,78
2018-05-01T02:29:41.156Z,78
2018-05-01T02:30:43.549Z,78
2018-05-01T02:31:45.929Z,78
2018-05-01T02:32:48.696Z,78
2018-05-01T02:33:51.368Z,79
2018-05-01T02:34:54.054Z,79
2018-05-01T02:35:56.427Z,80
2018-05-01T02:36:59.377Z,80
2018-05-01T02:38:01.750Z,80
2018-05-01T02:39:04.144Z,80
2018-05-01T02:40:07.195Z,81
2018-05-01T02:41:09.655Z,81
2018-05-01T02:42:13.023Z,80
2018-05-01T02:43:15.398Z,80
2018-05-01T02:44:17.793Z,81
2018-05-01T02:45:20.743Z,81
2018-05-01T02:46:23.793Z,80
2018-05-01T02:47:26.751Z,80
2018-05-01T02:48:29.406Z,81
2018-05-01T02:49:32.356Z,80
2018-05-01T02:50:34.735Z,80
2018-05-01T02:51:37.388Z,80
2018-05-01T02:52:40.900Z,80
2018-05-01T02:53:43.575Z,80
2018-05-01T02:54:46.244Z,80
2018-05-01T02:55:48.638Z,80
2018-05-01T02:56:51.022Z,79
2018-05-01T02:57:53.414Z,79
2018-05-01T02:58:55.796Z,78
2018-05-01T02:59:58.176Z,79
2018-05-01T03:01:00.862Z,78
2018-05-01T03:02:03.942Z,78
2018-05-01T03:03:07.286Z,78
2018-05-01T03:04:09.671Z,78
2018-05-01T03:05:12.607Z,77
2018-05-01T03:06:15.371Z,77
2018-05-01T03:07:17.752Z,77
2018-05-01T03:08:20.799Z,77
2018-05-01T03:09:23.470Z,77
2018-05-01T03:10:25.859Z,77
2018-05-01T03:11:28.812Z,77
2018-05-01T03:12:31.594Z,76
2018-05-01T03:13:34.654Z,76
2018-05-01T03:14:37.330Z,75
2018-05-01T03:15:39.999Z,75
2018-05-01T03:16:42.378Z,75
2018-05-01T03:17:44.770Z,74
2018-05-01T03:18:47.167Z,74
2018-05-01T03:19:49.833Z,74
2018-05-01T03:20:52.212Z,75
2018-05-01T03:21:54.599Z,74
2018-05-01T03:22:56.972Z,74
2018-05-01T03:23:59.359Z,74
2018-05-01T03:25:01.748Z,73
2018-05-01T03:26:04.111Z,73
2018-05-01T03:27:06.785Z,73
2018-05-01T03:28:09.502Z,74
2018-05-01T03:29:12.160Z,74
2018-05-01T03:30:14.935Z,74
2018-05-01T03:31:17.871Z,73
2018-05-01T03:32:20.246Z,74
2018-05-01T03:33:22.625Z,73
2018-05-01T03:34:25.016Z,74
2018-05-01T03:35:27.681Z,74
2018-05-01T03:36:30.339Z,76
2018-05-01T03:37:33.659Z,74
2018-05-01T03:38:36.326Z,74
2018-05-01T03:39:38.720Z,73
2018-05-01T03:40:41.102Z,73
2018-05-01T03:41:43.484Z,72
2018-05-01T03:42:45.864Z,72
2018-05-01T03:43:48.528Z,71
2018-05-01T03:44:50.918Z,72
2018-05-01T03:45:53.873Z,71
2018-05-01T03:46:56.257Z,70
2018-05-01T03:47:58.637Z,71
2018-05-01T03:49:01.022Z,71
2018-05-01T03:50:03.400Z,72
2018-05-01T03:51:05.799Z,71
2018-05-01T03:52:08.171Z,70
2018-05-01T03:53:11.148Z,70
2018-05-01T03:54:13.530Z,70
2018-05-01T03:55:15.913Z,69
2018-05-01T03:56:18.296Z,69
2018-05-01T03:57:20.673Z,68
2018-05-01T03:58:23.341Z,69
2018-05-01T03:59:25.722Z,69
2018-05-01T04:00:28.105Z,69
2018-05-01T04:01:30.771Z,68
2018-05-01T04:02:33.148Z,68
2018-05-01T04:03:35.540Z,70
2018-05-01T04:04:37.926Z,69
2018-05-01T04:05:40.579Z,69
2018-05-01T04:06:42.958Z,69
2018-05-01T04:07:45.628Z,68
2018-05-01T04:08:48.284Z,68
2018-05-01T04:09:50.677Z,67
2018-05-01T04:10:53.048Z,67
2018-05-01T04:11:55.419Z,67
2018-05-01T04:12:57.807Z,68
2018-05-01T04:14:00.185Z,68
2018-05-01T04:15:02.564Z,68
2018-05-01T04:16:05.508Z,68
2018-05-01T04:17:07.887Z,68
2018-05-01T04:18:10.295Z,68
2018-05-01T04:19:13.000Z,68
2018-05-01T04:20:15.387Z,68
2018-05-01T04:21:17.768Z,67
2018-05-01T04:22:20.199Z,67
2018-05-01T04:23:22.582Z,68
2018-05-01T04:24:24.964Z,69
2018-05-01T04:25:27.468Z,68
2018-05-01T04:26:29.741Z,68
2018-05-01T04:27:32.399Z,68
2018-05-01T04:28:34.781Z,68
2018-05-01T04:29:37.163Z,68
2018-05-01T04:30:39.540Z,68
2018-05-01T04:31:41.923Z,68
2018-05-01T04:32:44.592Z,68
2018-05-01T04:33:47.258Z,67
2018-05-01T04:34:49.655Z,68
2018-05-01T04:35:52.033Z,67
2018-05-01T04:36:54.412Z,68
2018-05-01T04:37:56.793Z,68
2018-05-01T04:38:59.171Z,67
2018-05-01T04:40:01.551Z,66
2018-05-01T04:41:04.317Z,67
2018-05-01T04:42:06.701Z,66
2018-05-01T04:43:09.087Z,66
2018-05-01T04:44:11.758Z,65
2018-05-01T04:45:14.142Z,64
2018-05-01T04:46:16.522Z,65
2018-05-01T04:47:18.909Z,64
2018-05-01T04:48:21.295Z,64
2018-05-01T04:49:23.674Z,64
2018-05-01T04:50:26.060Z,64
2018-05-01T04:51:28.427Z,64
2018-05-01T04:52:30.809Z,64
2018-05-01T04:53:33.195Z,64
2018-05-01T04:54:35.585Z,63
2018-05-01T04:55:38.241Z,63
2018-05-01T04:56:40.625Z,64
2018-05-01T04:57:43.013Z,64
2018-05-01T04:58:45.398Z,63
2018-05-01T04:59:48.168Z,63
2018-05-01T05:00:50.538Z,63
2018-05-01T05:01:52.929Z,63
2018-05-01T05:02:55.318Z,63
2018-05-01T05:03:58.478Z,64
2018-05-01T05:05:01.147Z,64
2018-05-01T05:06:03.524Z,63
2018-05-01T05:07:05.905Z,62
2018-05-01T05:08:08.291Z,62
2018-05-01T05:09:10.673Z,63
2018-05-01T05:10:13.347Z,63
2018-05-01T05:11:15.730Z,63
2018-05-01T05:12:18.112Z,64
2018-05-01T05:13:20.492Z,64
2018-05-01T05:14:22.871Z,63
2018-05-01T05:15:25.266Z,64
2018-05-01T05:16:27.650Z,66
2018-05-01T05:17:30.034Z,65
2018-05-01T05:18:32.410Z,64
2018-05-01T05:19:34.783Z,64
2018-05-01T05:20:37.160Z,64
2018-05-01T05:21:39.828Z,64
2018-05-01T05:22:42.198Z,64
2018-05-01T05:23:44.863Z,64
2018-05-01T05:24:47.248Z,64
2018-05-01T05:25:49.638Z,64
2018-05-01T05:26:52.030Z,64
2018-05-01T05:27:54.698Z,64
2018-05-01T05:28:57.075Z,63
2018-05-01T05:29:59.451Z,64
2018-05-01T05:31:02.115Z,64
2018-05-01T05:32:04.784Z,64
2018-05-01T05:33:07.622Z,64
2018-05-01T05:34:10.021Z,65
2018-05-01T05:35:12.391Z,63
2018-05-01T05:36:14.846Z,64
2018-05-01T05:37:17.160Z,64
2018-05-01T05:38:19.538Z,63
2018-05-01T05:39:21.924Z,62
2018-05-01T05:40:24.311Z,63
2018-05-01T05:41:26.681Z,63
2018-05-01T05:42:29.076Z,63
2018-05-01T05:43:31.450Z,63
2018-05-01T05:44:33.833Z,63
2018-05-01T05:45:36.494Z,62
2018-05-01T05:46:39.167Z,63
2018-05-01T05:47:41.547Z,62
2018-05-01T05:48:43.932Z,62
2018-05-01T05:49:46.584Z,63
2018-05-01T05:50:48.977Z,63
2018-05-01T05:51:51.361Z,63
2018-05-01T05:52:53.745Z,63
2018-05-01T05:53:56.127Z,62
2018-05-01T05:54:58.515Z,62
2018-05-01T05:56:01.182Z,63
2018-05-01T05:57:03.563Z,63
2018-05-01T05:58:05.939Z,63
2018-05-01T05:59:08.330Z,64
2018-05-01T06:00:10.993Z,64
2018-05-01T06:01:13.538Z,64
2018-05-01T06:02:15.762Z,63
2018-05-01T06:03:18.142Z,63
2018-05-01T06:04:20.515Z,63
2018-05-01T06:05:22.913Z,62
2018-05-01T06:06:25.294Z,63
2018-05-01T06:07:27.676Z,63
2018-05-01T06:08:30.449Z,63
2018-05-01T06:09:32.831Z,62
2018-05-01T06:10:35.221Z,62
2018-05-01T06:11:37.610Z,63
2018-05-01T06:12:39.983Z,62
2018-05-01T06:13:42.430Z,62
2018-05-01T06:14:44.739Z,62
2018-05-01T06:15:47.123Z,63
2018-05-01T06:16:49.515Z,63
2018-05-01T06:17:51.898Z,63
2018-05-01T06:18:54.558Z,63
2018-05-01T06:19:57.223Z,63
2018-05-01T06:20:59.611Z,63
2018-05-01T06:22:02.370Z,64
2018-05-01T06:23:05.929Z,63
2018-05-01T06:24:08.301Z,62
2018-05-01T06:25:10.964Z,63
2018-05-01T06:26:13.352Z,64
2018-05-01T06:27:15.746Z,63
2018-05-01T06:28:18.136Z,63
2018-05-01T06:29:20.509Z,64
2018-05-01T06:30:22.896Z,64
2018-05-01T06:31:25.871Z,66
2018-05-01T06:32:28.089Z,64
2018-05-01T06:33:30.465Z,66
2018-05-01T06:34:33.232Z,65
2018-05-01T06:35:35.614Z,64
2018-05-01T06:36:38.001Z,64
2018-05-01T06:37:40.382Z,63
2018-05-01T06:38:42.756Z,63
2018-05-01T06:39:45.144Z,64
2018-05-01T06:40:47.531Z,65
2018-05-01T06:41:49.912Z,64
2018-05-01T06:42:52.289Z,65
2018-05-01T06:43:55.044Z,64
2018-05-01T06:44:57.662Z,64
2018-05-01T06:46:00.051Z,64
2018-05-01T06:47:03.296Z,64
2018-05-01T06:48:05.685Z,63
2018-05-01T06:49:08.071Z,63
2018-05-01T06:50:10.739Z,64
2018-05-01T06:51:13.114Z,64
2018-05-01T06:52:15.493Z,64
2018-05-01T06:53:17.877Z,64
2018-05-01T06:54:20.255Z,64
2018-05-01T06:55:23.028Z,64
2018-05-01T06:56:25.412Z,64
2018-05-01T06:57:27.780Z,65
2018-05-01T06:58:30.165Z,65
2018-05-01T06:59:32.548Z,65
2018-05-01T07:00:34.923Z,64
2018-05-01T07:01:37.297Z,64
2018-05-01T07:02:40.076Z,64
2018-05-01T07:03:42.451Z,64
2018-05-01T07:04:45.139Z,65
2018-05-01T07:05:47.524Z,65
2018-05-01T07:06:50.286Z,66
2018-05-01T07:07:52.963Z,66
2018-05-01T07:08:55.352Z,65
2018-05-01T07:09:57.738Z,66
2018-05-01T07:11:00.453Z,66
2018-05-01T07:12:02.847Z,67
2018-05-01T07:13:05.233Z,67
2018-05-01T07:14:07.601Z,66
2018-05-01T07:15:10.002Z,67
2018-05-01T07:16:12.780Z,66
2018-05-01T07:17:15.177Z,68
2018-05-01T07:18:17.560Z,68
2018-05-01T07:19:19.939Z,67
2018-05-01T07:20:22.328Z,68
2018-05-01T07:21:24.722Z,69
2018-05-01T07:22:27.095Z,69
2018-05-01T07:23:29.483Z,70
2018-05-01T07:24:31.867Z,70
2018-05-01T07:25:34.273Z,70
2018-05-01T07:26:36.636Z,70
2018-05-01T07:27:39.416Z,71
2018-05-01T07:28:41.785Z,71
2018-05-01T07:29:44.168Z,71
2018-05-01T07:30:46.551Z,70
2018-05-01T07:31:49.013Z,70
2018-05-01T07:32:51.320Z,71
2018-05-01T07:33:53.999Z,72
2018-05-01T07:34:56.382Z,71
2018-05-01T07:35:58.774Z,71
2018-05-01T07:37:01.498Z,72
2018-05-01T07:38:03.815Z,71
2018-05-01T07:39:06.196Z,71
2018-05-01T07:40:08.584Z,71
2018-05-01T07:41:10.970Z,72
2018-05-01T07:42:13.645Z,72
2018-05-01T07:43:16.027Z,74
2018-05-01T07:44:18.410Z,73
2018-05-01T07:45:20.795Z,72
2018-05-01T07:46:23.184Z,73
2018-05-01T07:47:25.833Z,72
2018-05-01T07:48:28.220Z,72
2018-05-01T07:49:30.606Z,71
2018-05-01T07:50:32.990Z,72
2018-05-01T07:51:36.061Z,71
2018-05-01T07:52:38.444Z,72
2018-05-01T07:53:40.829Z,71
2018-05-01T07:54:43.222Z,71
2018-05-01T07:55:45.596Z,71
2018-05-01T07:56:47.982Z,70
2018-05-01T07:57:50.503Z,70
2018-05-01T07:58:52.907Z,71
2018-05-01T07:59:55.292Z,70
2018-05-01T08:00:57.685Z,70
2018-05-01T08:02:00.128Z,70
2018-05-01T08:03:02.540Z,71
2018-05-01T08:04:05.207Z,70
2018-05-01T08:05:07.582Z,70
2018-05-01T08:06:09.968Z,70
2018-05-01T08:07:12.342Z,70
2018-05-01T08:08:14.719Z,69
2018-05-01T08:09:17.396Z,69
2018-05-01T08:10:19.767Z,70
2018-05-01T08:11:22.420Z,70
2018-05-01T08:12:24.814Z,70
2018-05-01T08:13:27.196Z,71
2018-05-01T08:14:30.150Z,71
2018-05-01T08:15:32.525Z,71
2018-05-01T08:16:34.917Z,71
2018-05-01T08:17:37.287Z,72
2018-05-01T08:18:39.687Z,72
2018-05-01T08:19:42.052Z,73
2018-05-01T08:20:44.715Z,74
2018-05-01T08:21:47.096Z,73
2018-05-01T08:22:49.486Z,74
2018-05-01T08:23:52.118Z,73
2018-05-01T08:24:54.721Z,74
2018-05-01T08:25:57.097Z,74
2018-05-01T08:26:59.478Z,74
2018-05-01T08:28:01.864Z,73
2018-05-01T08:29:04.250Z,73
2018-05-01T08:30:06.630Z,73
2018-05-01T08:31:09.014Z,75
2018-05-01T08:32:11.390Z,75
2018-05-01T08:33:14.055Z,74
2018-05-01T08:34:16.433Z,75
2018-05-01T08:35:19.104Z,75
2018-05-01T08:36:21.479Z,75
2018-05-01T08:37:23.871Z,74
2018-05-01T08:38:26.252Z,74
2018-05-01T08:39:28.636Z,74
2018-05-01T08:40:31.051Z,73
2018-05-01T08:41:33.444Z,73
2018-05-01T08:42:35.856Z,73
2018-05-01T08:43:38.264Z,72
2018-05-01T08:44:40.640Z,72
2018-05-01T08:45:43.369Z,72
2018-05-01T08:46:45.749Z,71
2018-05-01T08:47:48.170Z,71
2018-05-01T08:48:50.620Z,71
2018-05-01T08:49:52.998Z,72
2018-05-01T08:50:55.943Z,71
2018-05-01T08:51:58.601Z,71
2018-05-01T08:53:00.987Z,71
2018-05-01T08:54:03.385Z,71
2018-05-01T08:55:05.757Z,72
2018-05-01T08:56:08.138Z,72
2018-05-01T08:57:10.525Z,72
2018-05-01T08:58:12.913Z,72
2018-05-01T08:59:15.289Z,72
2018-05-01T09:00:17.956Z,72
2018-05-01T09:01:20.327Z,72
2018-05-01T09:02:22.719Z,72
2018-05-01T09:03:25.094Z,72
2018-05-01T09:04:27.757Z,71
2018-05-01T09:05:30.138Z,71
2018-05-01T09:06:32.528Z,71
2018-05-01T09:07:34.929Z,72
2018-05-01T09:08:37.339Z,72
2018-05-01T09:09:39.716Z,71
2018-05-01T09:10:42.639Z,71
2018-05-01T09:11:45.385Z,71
2018-05-01T09:12:50.450Z,72
2018-05-01T09:13:56.414Z,72
2018-05-01T09:15:00.898Z,71
2018-05-01T09:16:05.443Z,71
2018-05-01T09:17:12.263Z,71
2018-05-01T09:18:22.679Z,71
2018-05-01T09:19:30.281Z,72
2018-05-01T09:20:42.308Z,71
2018-05-01T09:21:52.035Z,71
2018-05-01T09:23:03.940Z,72
2018-05-01T09:24:14.501Z,71
2018-05-01T09:25:26.030Z,72
2018-05-01T09:26:36.607Z,72
2018-05-01T09:27:45.727Z,72
2018-05-01T09:28:55.306Z,72
2018-05-01T09:30:03.232Z,73
2018-05-01T09:31:13.915Z,72
2018-05-01T09:32:28.817Z,72
2018-05-01T09:33:44.087Z,72
2018-05-01T09:34:59.511Z,72
2018-05-01T09:36:11.040Z,73
2018-05-01T09:37:26.334Z,73
2018-05-01T09:38:43.184Z,73
2018-05-01T09:39:54.699Z,73
2018-05-01T09:41:06.404Z,73
2018-05-01T09:42:22.312Z,74
2018-05-01T09:43:36.379Z,74
2018-05-01T09:44:55.325Z,74
2018-05-01T09:46:06.360Z,74
2018-05-01T09:47:17.069Z,74
2018-05-01T09:48:28.047Z,74
2018-05-01T09:49:46.118Z,74
2018-05-01T09:51:03.709Z,75
2018-05-01T09:52:22.085Z,75
2018-05-01T09:53:37.441Z,76
2018-05-01T09:55:11.562Z,76
2018-05-01T09:56:30.117Z,76
2018-05-01T09:57:47.212Z,76
2018-05-01T09:59:11.653Z,76
2018-05-01T10:00:24.386Z,76
2018-05-01T10:01:34.134Z,75
2018-05-01T10:02:48.462Z,75
2018-05-01T10:03:55.147Z,75
2018-05-01T10:05:01.865Z,75
2018-05-01T10:06:04.817Z,75
2018-05-01T10:07:07.285Z,75
2018-05-01T10:08:16.913Z,75
2018-05-01T10:09:45.960Z,75
2018-05-01T10:10:59.193Z,75
2018-05-01T10:12:17.120Z,75
2018-05-01T10:13:32.111Z,76
2018-05-01T10:14:57.843Z,76
2018-05-01T10:16:19.155Z,75
2018-05-01T10:17:26.974Z,75
2018-05-01T10:18:29.878Z,75
2018-05-01T10:19:35.890Z,75
2018-05-01T10:20:42.009Z,76
2018-05-01T10:21:44.395Z,76
2018-05-01T10:22:47.345Z,76
2018-05-01T10:23:50.017Z,76
2018-05-01T10:24:52.390Z,76
2018-05-01T10:25:54.774Z,77
2018-05-01T10:26:57.441Z,77
2018-05-01T10:28:00.205Z,77
2018-05-01T10:29:02.588Z,78
2018-05-01T10:30:04.962Z,78
2018-05-01T10:31:07.334Z,79
2018-05-01T10:32:09.728Z,79
2018-05-01T10:33:12.117Z,79
2018-05-01T10:34:14.486Z,79
2018-05-01T10:35:16.870Z,80
2018-05-01T10:36:19.257Z,81
2018-05-01T10:37:21.636Z,81
2018-05-01T10:38:24.084Z,81
2018-05-01T10:39:26.393Z,82
2018-05-01T10:40:28.781Z,81
2018-05-01T10:41:31.546Z,81
2018-05-01T10:42:33.935Z,80
2018-05-01T10:43:36.593Z,81
2018-05-01T10:44:38.973Z,82
2018-05-01T10:45:41.391Z,82
2018-05-01T10:46:43.733Z,82
2018-05-01T10:47:46.107Z,82
2018-05-01T10:48:48.492Z,82
2018-05-01T10:49:50.881Z,81
2018-05-01T10:50:53.258Z,81
2018-05-01T10:51:55.641Z,81
2018-05-01T10:52:58.693Z,81
2018-05-01T10:54:01.383Z,81
2018-05-01T10:55:03.762Z,81
2018-05-01T10:56:06.139Z,81
2018-05-01T10:57:08.510Z,81
2018-05-01T10:58:11.280Z,81
2018-05-01T10:59:13.650Z,81
2018-05-01T11:00:16.026Z,81
2018-05-01T11:01:18.409Z,81
2018-05-01T11:02:20.789Z,81
2018-05-01T11:03:23.170Z,81
2018-05-01T11:04:25.835Z,80
2018-05-01T11:05:28.213Z,81
2018-05-01T11:06:30.877Z,80
2018-05-01T11:07:33.577Z,80
2018-05-01T11:08:35.968Z,80
2018-05-01T11:09:38.713Z,80
2018-05-01T11:10:41.386Z,79
2018-05-01T11:11:43.765Z,79
2018-05-01T11:12:46.735Z,80
2018-05-01T11:13:49.109Z,79
2018-05-01T11:14:51.489Z,80
2018-05-01T11:15:53.872Z,79
2018-05-01T11:16:56.261Z,79
2018-05-01T11:17:58.648Z,79
2018-05-01T11:19:01.024Z,79
2018-05-01T11:20:03.692Z,80
2018-05-01T11:21:06.079Z,79
2018-05-01T11:22:08.449Z,80
2018-05-01T11:23:10.839Z,79
2018-05-01T11:24:13.222Z,79
2018-05-01T11:25:15.591Z,79
2018-05-01T11:26:19.825Z,79
2018-05-01T11:27:23.305Z,79
2018-05-01T11:28:25.979Z,79
2018-05-01T11:29:28.359Z,79
2018-05-01T11:30:30.744Z,80
2018-05-01T11:31:33.114Z,80
2018-05-01T11:32:35.507Z,80
2018-05-01T11:33:37.943Z,80
2018-05-01T11:34:55.300Z,79
2018-05-01T11:35:57.679Z,80
2018-05-01T11:37:00.067Z,80
2018-05-01T11:38:02.728Z,80
2018-05-01T11:39:05.095Z,80
2018-05-01T11:40:07.476Z,80
2018-05-01T11:41:09.859Z,80
2018-05-01T11:42:12.231Z,81
2018-05-01T11:43:14.609Z,80
2018-05-01T11:44:16.980Z,81
2018-05-01T11:45:19.364Z,81
2018-05-01T11:46:21.751Z,81
2018-05-01T11:47:24.419Z,82
2018-05-01T11:48:27.071Z,82
2018-05-01T11:49:33.807Z,81
2018-05-01T11:50:37.863Z,82
2018-05-01T11:51:40.250Z,82
2018-05-01T11:52:42.897Z,82
2018-05-01T11:53:45.590Z,83
2018-05-01T11:54:47.955Z,83
2018-05-01T11:55:50.334Z,83
2018-05-01T11:56:52.708Z,83
2018-05-01T11:57:55.075Z,83
2018-05-01T11:58:57.454Z,85
2018-05-01T11:59:59.840Z,83
2018-05-01T12:01:02.801Z,84
2018-05-01T12:02:05.178Z,85
2018-05-01T12:03:07.561Z,84
2018-05-01T12:04:09.937Z,86
2018-05-01T12:05:12.598Z,87
2018-05-01T12:06:14.982Z,84
2018-05-01T12:07:17.651Z,84
2018-05-01T12:08:20.041Z,84
2018-05-01T12:09:22.419Z,85
2018-05-01T12:10:25.081Z,86
2018-05-01T12:11:27.473Z,84
2018-05-01T12:12:29.854Z,84
2018-05-01T12:13:32.227Z,84
2018-05-01T12:14:34.995Z,84
2018-05-01T12:15:37.362Z,85
2018-05-01T12:16:39.744Z,84
2018-05-01T12:17:42.124Z,85
2018-05-01T12:18:44.784Z,85
2018-05-01T12:19:47.444Z,85
2018-05-01T12:20:49.971Z,85
2018-05-01T12:21:52.438Z,85
2018-05-01T12:22:54.830Z,85
2018-05-01T12:23:57.195Z,85
2018-05-01T12:25:00.145Z,85
2018-05-01T12:26:02.799Z,86
2018-05-01T12:27:05.449Z,86
2018-05-01T12:28:07.827Z,85
2018-05-01T12:29:10.489Z,85
2018-05-01T12:30:13.433Z,85
2018-05-01T12:31:16.116Z,85
2018-05-01T12:32:18.491Z,85
2018-05-01T12:33:21.265Z,85
2018-05-01T12:34:23.645Z,85
2018-05-01T12:35:26.026Z,85
2018-05-01T12:36:29.117Z,86
2018-05-01T12:37:31.459Z,86
2018-05-01T12:38:34.112Z,85
2018-05-01T12:39:36.488Z,86
2018-05-01T12:40:39.229Z,86
2018-05-01T12:41:41.573Z,86
2018-05-01T12:42:44.280Z,86
2018-05-01T12:43:46.928Z,86
2018-05-01T12:44:49.590Z,86
2018-05-01T12:45:51.991Z,86
2018-05-01T12:46:54.380Z,86
2018-05-01T12:47:56.740Z,86
2018-05-01T12:48:59.142Z,86
2018-05-01T12:50:01.517Z,86
2018-05-01T12:51:04.220Z,86
2018-05-01T12:52:06.892Z,85
2018-05-01T12:53:09.270Z,85
2018-05-01T12:54:11.689Z,85
2018-05-01T12:55:14.358Z,85
2018-05-01T12:56:16.724Z,85
2018-05-01T12:57:19.105Z,85
2018-05-01T12:58:21.610Z,85
2018-05-01T12:59:24.108Z,85
2018-05-01T13:00:26.504Z,86
2018-05-01T13:01:28.885Z,85
2018-05-01T13:02:31.259Z,85
2018-05-01T13:03:33.928Z,85
2018-05-01T13:04:36.747Z,85
2018-05-01T13:05:39.138Z,86
2018-05-01T13:06:41.782Z,86
2018-05-01T13:07:44.155Z,86
2018-05-01T13:08:46.541Z,86
2018-05-01T13:10:19.007Z,86
2018-05-01T13:11:21.732Z,86
2018-05-01T13:12:24.198Z,87
2018-05-01T13:13:26.703Z,87
2018-05-01T13:14:29.132Z,86
2018-05-01T13:15:31.575Z,87
2018-05-01T13:16:34.022Z,87
2018-05-01T13:17:36.482Z,87
2018-05-01T13:18:38.956Z,87
2018-05-01T13:19:42.664Z,87
2018-05-01T13:20:45.286Z,87
2018-05-01T13:21:48.084Z,87
2018-05-01T13:22:51.645Z,87
2018-05-01T13:23:54.131Z,87
2018-05-01T13:24:57.205Z,87
2018-05-01T13:25:59.646Z,87
2018-05-01T13:27:02.226Z,87
2018-05-01T13:28:05.293Z,88
2018-05-01T13:29:07.858Z,88
2018-05-01T13:30:10.304Z,87
2018-05-01T13:31:13.045Z,87
2018-05-01T13:32:15.497Z,87
2018-05-01T13:33:17.929Z,87
2018-05-01T13:34:20.661Z,87
2018-05-01T13:35:23.109Z,87
2018-05-01T13:36:25.832Z,87
2018-05-01T13:37:28.289Z,87
2018-05-01T13:38:30.801Z,87
2018-05-01T13:39:33.236Z,87
2018-05-01T13:40:35.703Z,87
2018-05-01T13:41:38.135Z,87
2018-05-01T13:42:40.571Z,87
2018-05-01T13:43:43.014Z,87
2018-05-01T13:44:45.460Z,87
2018-05-01T13:45:47.895Z,87
2018-05-01T13:46:50.717Z,86
2018-05-01T13:47:53.159Z,87
2018-05-01T13:48:55.671Z,87
2018-05-01T13:49:58.155Z,87
2018-05-01T13:51:00.584Z,87
2018-05-01T13:52:03.309Z,86
2018-05-01T13:53:05.744Z,87
2018-05-01T13:54:08.185Z,87
2018-05-01T13:55:10.617Z,87
2018-05-01T13:56:13.339Z,87
2018-05-01T13:57:16.630Z,87
2018-05-01T13:58:19.685Z,87
2018-05-01T13:59:22.136Z,87
2018-05-01T14:00:24.577Z,86
2018-05-01T14:01:27.007Z,87
2018-05-01T14:02:29.439Z,87
2018-05-01T14:03:31.868Z,87
2018-05-01T14:04:34.655Z,87
2018-05-01T14:05:37.038Z,88
2018-05-01T14:06:39.766Z,86
2018-05-01T14:07:42.201Z,87
2018-05-01T14:08:44.654Z,85
2018-05-01T14:09:47.085Z,85
2018-05-01T14:10:49.525Z,85
2018-05-01T14:11:51.963Z,85
2018-05-01T14:12:54.413Z,84
2018-05-01T14:13:56.856Z,83
2018-05-01T14:14:59.308Z,84
2018-05-01T14:16:01.730Z,83
2018-05-01T14:17:04.770Z,83
2018-05-01T14:18:07.221Z,83
2018-05-01T14:19:09.731Z,83
2018-05-01T14:20:12.104Z,83
2018-05-01T14:21:14.557Z,83
2018-05-01T14:22:17.572Z,83
2018-05-01T14:23:20.008Z,83
2018-05-01T14:24:22.455Z,84
2018-05-01T14:25:24.997Z,84
2018-05-01T14:26:27.320Z,85
2018-05-01T14:27:30.060Z,85
2018-05-01T14:28:32.496Z,85
2018-05-01T14:29:35.216Z,86
2018-05-01T14:30:37.664Z,85
2018-05-01T14:31:40.135Z,86
2018-05-01T14:32:43.152Z,87
2018-05-01T14:33:45.592Z,87
2018-05-01T14:34:48.038Z,87
2018-05-01T14:35:50.473Z,87
2018-05-01T14:36:52.938Z,88
2018-05-01T14:37:55.366Z,87
2018-05-01T14:38:58.156Z,88
2018-05-01T14:40:00.582Z,89
2018-05-01T14:41:03.319Z,88
2018-05-01T14:42:05.858Z,88
2018-05-01T14:43:08.510Z,88
2018-05-01T14:44:11.227Z,88
2018-05-01T14:45:13.961Z,88
2018-05-01T14:46:16.733Z,88
2018-05-01T14:47:19.441Z,88
2018-05-01T14:48:21.904Z,88
2018-05-01T14:49:24.642Z,89
2018-05-01T14:50:27.104Z,89
2018-05-01T14:51:29.547Z,89
2018-05-01T14:52:32.317Z,89
2018-05-01T14:53:34.741Z,89
2018-05-01T14:54:37.478Z,89
2018-05-01T14:55:39.907Z,89
2018-05-01T14:56:42.349Z,89
2018-05-01T14:57:44.862Z,88
2018-05-01T14:58:47.684Z,88
2018-05-01T14:59:50.121Z,88
2018-05-01T15:00:52.608Z,88
2018-05-01T15:01:55.050Z,88